createdAt,value
2017-02-11T00:01:02.996Z,90.68
2017-02-11T00:02:13.667Z,90.78
2017-02-11T00:03:24.337Z,90.59
2017-02-11T00:04:35.005Z,90.4
2017-02-11T00:05:45.675Z,91.16
2017-02-11T00:06:56.342Z,90.97
2017-02-11T00:08:07.007Z,90.21
2017-02-11T00:09:17.281Z,90.4
2017-02-11T00:10:27.950Z,90.59
2017-02-11T00:11:38.627Z,90.68
2017-02-11T00:12:48.900Z,90.68
2017-02-11T00:13:59.564Z,90.21
2017-02-11T00:15:10.227Z,90.4
2017-02-11T00:16:20.893Z,90.21
2017-02-11T00:17:31.560Z,90.21
2017-02-11T00:18:42.235Z,90.4
2017-02-11T00:19:52.903Z,90.21
2017-02-11T00:21:03.579Z,90.31
2017-02-11T00:22:14.249Z,90.59
2017-02-11T00:23:24.925Z,90.68
2017-02-11T00:24:35.601Z,90.5
2017-02-11T00:25:46.269Z,90.68
2017-02-11T00:26:56.932Z,90.5
2017-02-11T00:28:07.596Z,90.97
2017-02-11T00:29:18.259Z,90.5
2017-02-11T00:30:28.923Z,90.87
2017-02-11T00:31:39.589Z,90.87
2017-02-11T00:32:50.255Z,91.06
2017-02-11T00:34:00.920Z,90.59
2017-02-11T00:35:11.583Z,90.21
2017-02-11T00:36:22.248Z,90.21
2017-02-11T00:37:32.913Z,90.12
2017-02-11T00:38:43.592Z,89.83
2017-02-11T00:39:54.258Z,89.74
2017-02-11T00:41:05.275Z,89.93
2017-02-11T00:42:15.941Z,90.4
2017-02-11T00:43:26.612Z,90.31
2017-02-11T00:44:37.269Z,90.78
2017-02-11T00:45:47.537Z,90.5
2017-02-11T00:46:58.208Z,90.4
2017-02-11T00:48:08.869Z,90.68
2017-02-11T00:49:19.143Z,90.68
2017-02-11T00:50:29.806Z,90.5
2017-02-11T00:51:40.471Z,90.4
2017-02-11T00:52:51.136Z,90.31
2017-02-11T00:54:01.796Z,90.68
2017-02-11T00:55:12.460Z,90.31
2017-02-11T00:56:23.121Z,90.21
2017-02-11T00:57:33.792Z,89.93
2017-02-11T00:58:44.458Z,89.74
2017-02-11T00:59:55.149Z,89.74
2017-02-11T01:01:05.823Z,90.21
2017-02-11T01:02:16.103Z,90.5
2017-02-11T01:03:26.772Z,90.21
2017-02-11T01:04:37.450Z,90.02
2017-02-11T01:05:47.720Z,90.68
2017-02-11T01:06:58.389Z,90.78
2017-02-11T01:08:08.659Z,90.59
2017-02-11T01:09:19.327Z,89.83
2017-02-11T01:10:30.002Z,90.31
2017-02-11T01:11:40.282Z,90.4
2017-02-11T01:12:50.952Z,90.5
2017-02-11T01:14:01.626Z,90.31
2017-02-11T01:15:12.295Z,90.4
2017-02-11T01:16:22.565Z,89.93
2017-02-11T01:17:33.234Z,89.64
2017-02-11T01:18:43.898Z,89.93
2017-02-11T01:19:54.564Z,90.12
2017-02-11T01:21:05.229Z,89.83
2017-02-11T01:22:15.099Z,90.21
2017-02-11T01:23:25.761Z,89.93
2017-02-11T01:24:36.029Z,90.02
2017-02-11T01:25:46.697Z,90.12
2017-02-11T01:26:57.353Z,89.64
2017-02-11T01:28:07.222Z,89.83
2017-02-11T01:29:17.491Z,89.74
2017-02-11T01:30:28.181Z,89.93
2017-02-11T01:31:38.850Z,89.93
2017-02-11T01:32:49.115Z,90.12
2017-02-11T01:33:59.824Z,90.21
2017-02-11T01:35:10.100Z,90.4
2017-02-11T01:36:20.769Z,90.4
2017-02-11T01:37:31.440Z,90.21
2017-02-11T01:38:42.104Z,90.31
2017-02-11T01:39:52.769Z,90.21
2017-02-11T01:41:03.442Z,91.16
2017-02-11T01:42:14.106Z,91.25
2017-02-11T01:43:24.769Z,90.5
2017-02-11T01:44:35.437Z,90.21
2017-02-11T01:45:46.202Z,90.78
2017-02-11T01:46:56.869Z,90.4
2017-02-11T01:48:07.534Z,90.97
2017-02-11T01:49:17.816Z,90.97
2017-02-11T01:50:28.485Z,91.06
2017-02-11T01:51:39.153Z,90.97
2017-02-11T01:52:49.818Z,91.06
2017-02-11T01:54:00.487Z,91.25
2017-02-11T01:55:10.756Z,91.35
2017-02-11T01:56:21.027Z,91.35
2017-02-11T01:57:31.300Z,91.91
2017-02-11T01:58:41.968Z,91.53
2017-02-11T01:59:52.636Z,91.53
2017-02-11T02:01:03.309Z,91.53
2017-02-11T02:02:13.577Z,92
2017-02-11T02:03:24.242Z,91.91
2017-02-11T02:04:34.514Z,91.53
2017-02-11T02:05:45.178Z,92
2017-02-11T02:06:55.841Z,91.82
2017-02-11T02:08:06.113Z,91.63
2017-02-11T02:09:16.781Z,92.19
2017-02-11T02:10:27.447Z,92.19
2017-02-11T02:11:38.122Z,92.1
2017-02-11T02:12:48.788Z,92.38
2017-02-11T02:13:59.475Z,92.47
2017-02-11T02:15:10.146Z,92.57
2017-02-11T02:16:20.837Z,92.95
2017-02-11T02:17:31.509Z,92.66
2017-02-11T02:18:41.778Z,92.57
2017-02-11T02:19:52.443Z,92.76
2017-02-11T02:21:03.123Z,93.32
2017-02-11T02:22:13.393Z,93.7
2017-02-11T02:23:24.055Z,93.7
2017-02-11T02:24:34.725Z,93.7
2017-02-11T02:25:44.995Z,93.61
2017-02-11T02:26:55.666Z,93.51
2017-02-11T02:28:05.934Z,93.32
2017-02-11T02:29:15.802Z,93.47
2017-02-11T02:30:26.461Z,93.23
2017-02-11T02:31:37.129Z,93.51
2017-02-11T02:32:47.799Z,93.8
2017-02-11T02:33:58.469Z,93.8
2017-02-11T02:35:09.134Z,93.8
2017-02-11T02:36:19.811Z,94.65
2017-02-11T02:37:30.499Z,94.46
2017-02-11T02:38:41.169Z,94.46
2017-02-11T02:39:51.440Z,94.46
2017-02-11T02:41:01.709Z,93.8
2017-02-11T02:42:12.384Z,93.8
2017-02-11T02:43:23.057Z,93.8
2017-02-11T02:44:33.755Z,94.27
2017-02-11T02:45:44.436Z,94.46
2017-02-11T02:46:54.707Z,94.27
2017-02-11T02:48:05.377Z,94.93
2017-02-11T02:49:15.646Z,95.12
2017-02-11T02:50:26.310Z,94.65
2017-02-11T02:51:36.972Z,94.84
2017-02-11T02:52:47.642Z,94.36
2017-02-11T02:53:58.321Z,94.36
2017-02-11T02:55:08.592Z,94.46
2017-02-11T02:56:19.270Z,94.36
2017-02-11T02:57:29.939Z,94.55
2017-02-11T02:58:40.602Z,94.55
2017-02-11T02:59:51.268Z,94.27
2017-02-11T03:01:01.957Z,94.08
2017-02-11T03:02:12.624Z,94.65
2017-02-11T03:03:22.899Z,94.55
2017-02-11T03:04:33.569Z,94.84
2017-02-11T03:05:44.229Z,95.07
2017-02-11T03:06:54.896Z,95.17
2017-02-11T03:08:05.568Z,95.36
2017-02-11T03:09:16.236Z,96.3
2017-02-11T03:10:26.914Z,96.2
2017-02-11T03:11:37.585Z,95.92
2017-02-11T03:12:48.250Z,96.2
2017-02-11T03:13:59.087Z,95.83
2017-02-11T03:15:08.957Z,96.11
2017-02-11T03:16:19.652Z,96.3
2017-02-11T03:17:29.931Z,96.86
2017-02-11T03:18:40.231Z,96.48
2017-02-11T03:19:51.204Z,96.58
2017-02-11T03:21:01.475Z,96.01
2017-02-11T03:22:11.757Z,96.58
2017-02-11T03:23:22.453Z,96.11
2017-02-11T03:24:33.125Z,96.3
2017-02-11T03:25:43.806Z,96.01
2017-02-11T03:26:54.468Z,97.05
2017-02-11T03:28:04.734Z,96.67
2017-02-11T03:29:14.610Z,96.86
2017-02-11T03:30:25.275Z,97.24
2017-02-11T03:31:35.940Z,97.24
2017-02-11T03:32:46.604Z,97.43
2017-02-11T03:33:57.267Z,97.43
2017-02-11T03:35:07.964Z,97.05
2017-02-11T03:36:18.629Z,97.05
2017-02-11T03:37:29.296Z,97.05
2017-02-11T03:38:39.960Z,97.33
2017-02-11T03:39:50.630Z,97.99
2017-02-11T03:41:01.300Z,98.09
2017-02-11T03:42:11.962Z,97.8
2017-02-11T03:43:22.630Z,98.18
2017-02-11T03:44:33.294Z,97.9
2017-02-11T03:45:43.970Z,98.47
2017-02-11T03:46:54.640Z,97.9
2017-02-11T03:48:05.303Z,97.8
2017-02-11T03:49:14.788Z,97.52
2017-02-11T03:50:25.461Z,97.99
2017-02-11T03:51:36.130Z,97.99
2017-02-11T03:52:46.801Z,97.71
2017-02-11T03:53:57.469Z,97.71
2017-02-11T03:55:08.145Z,97.71
2017-02-11T03:56:18.811Z,97.33
2017-02-11T03:57:29.477Z,97.24
2017-02-11T03:58:40.146Z,97.43
2017-02-11T03:59:50.811Z,97.05
2017-02-11T04:01:01.484Z,97.14
2017-02-11T04:02:12.147Z,97.05
2017-02-11T04:03:22.807Z,97.24
2017-02-11T04:04:33.473Z,97.24
2017-02-11T04:05:44.138Z,97.24
2017-02-11T04:06:54.811Z,97.24
2017-02-11T04:08:05.478Z,96.95
2017-02-11T04:09:16.149Z,97.05
2017-02-11T04:10:26.436Z,96.67
2017-02-11T04:11:37.105Z,97.24
2017-02-11T04:12:47.777Z,97.24
2017-02-11T04:13:58.445Z,97.05
2017-02-11T04:15:09.116Z,97.43
2017-02-11T04:16:19.388Z,97.05
2017-02-11T04:17:30.052Z,97.05
2017-02-11T04:18:40.722Z,97.24
2017-02-11T04:19:51.386Z,97.24
2017-02-11T04:21:02.056Z,96.86
2017-02-11T04:22:12.721Z,97.24
2017-02-11T04:23:22.980Z,97.14
2017-02-11T04:24:33.647Z,97.33
2017-02-11T04:25:44.312Z,96.77
2017-02-11T04:26:54.983Z,97.33
2017-02-11T04:28:05.254Z,96.77
2017-02-11T04:29:15.524Z,96.86
2017-02-11T04:30:26.191Z,96.58
2017-02-11T04:31:36.857Z,96.95
2017-02-11T04:32:47.528Z,96.95
2017-02-11T04:33:58.208Z,96.86
2017-02-11T04:35:08.886Z,96.86
2017-02-11T04:36:19.559Z,96.48
2017-02-11T04:37:30.225Z,96.67
2017-02-11T04:38:40.890Z,96.58
2017-02-11T04:39:51.578Z,96.58
2017-02-11T04:41:02.245Z,96.77
2017-02-11T04:42:12.906Z,96.86
2017-02-11T04:43:23.572Z,96.86
2017-02-11T04:44:34.238Z,96.3
2017-02-11T04:45:44.900Z,95.92
2017-02-11T04:46:55.564Z,96.3
2017-02-11T04:48:06.235Z,96.39
2017-02-11T04:49:15.712Z,96.01
2017-02-11T04:50:26.379Z,96.39
2017-02-11T04:51:37.045Z,96.2
2017-02-11T04:52:47.713Z,96.48
2017-02-11T04:53:58.380Z,96.58
2017-02-11T04:55:09.057Z,96.58
2017-02-11T04:56:19.723Z,96.11
2017-02-11T04:57:30.401Z,96.67
2017-02-11T04:58:41.066Z,96.3
2017-02-11T04:59:51.730Z,96.48
2017-02-11T05:01:02.402Z,95.92
2017-02-11T05:02:12.669Z,95.92
2017-02-11T05:03:22.940Z,96.01
2017-02-11T05:04:33.618Z,96.2
2017-02-11T05:05:44.283Z,95.36
2017-02-11T05:06:54.959Z,95.26
2017-02-11T05:08:05.659Z,95.73
2017-02-11T05:09:16.328Z,95.36
2017-02-11T05:10:26.987Z,95.36
2017-02-11T05:11:37.253Z,95.36
2017-02-11T05:12:47.917Z,94.69
2017-02-11T05:13:58.587Z,94.98
2017-02-11T05:15:09.257Z,95.17
2017-02-11T05:16:19.923Z,95.17
2017-02-11T05:17:30.191Z,94.88
2017-02-11T05:18:40.859Z,94.88
2017-02-11T05:19:51.520Z,95.07
2017-02-11T05:21:02.190Z,94.69
2017-02-11T05:22:12.860Z,94.79
2017-02-11T05:23:23.126Z,95.26
2017-02-11T05:24:33.791Z,95.07
2017-02-11T05:25:44.450Z,95.26
2017-02-11T05:26:55.117Z,94.6
2017-02-11T05:28:05.785Z,94.98
2017-02-11T05:29:16.447Z,94.98
2017-02-11T05:30:27.153Z,94.79
2017-02-11T05:31:37.852Z,95.26
2017-02-11T05:32:48.524Z,95.07
2017-02-11T05:33:59.192Z,94.6
2017-02-11T05:35:09.455Z,94.79
2017-02-11T05:36:20.130Z,95.07
2017-02-11T05:37:30.800Z,94.69
2017-02-11T05:38:41.498Z,94.32
2017-02-11T05:39:51.765Z,94.98
2017-02-11T05:41:02.041Z,94.79
2017-02-11T05:42:12.309Z,94.79
2017-02-11T05:43:22.980Z,94.6
2017-02-11T05:44:33.641Z,94.79
2017-02-11T05:45:44.313Z,94.6
2017-02-11T05:46:55.008Z,94.98
2017-02-11T05:48:05.674Z,94.98
2017-02-11T05:49:16.350Z,94.79
2017-02-11T05:50:27.016Z,94.79
2017-02-11T05:51:37.676Z,94.79
2017-02-11T05:52:48.342Z,94.79
2017-02-11T05:53:59.011Z,94.98
2017-02-11T05:55:09.678Z,94.41
2017-02-11T05:56:20.347Z,94.41
2017-02-11T05:57:31.015Z,94.79
2017-02-11T05:58:41.679Z,94.6
2017-02-11T05:59:52.351Z,94.22
2017-02-11T06:01:03.019Z,94.79
2017-02-11T06:02:13.287Z,94.79
2017-02-11T06:03:23.557Z,94.98
2017-02-11T06:04:34.230Z,94.98
2017-02-11T06:05:44.903Z,94.79
2017-02-11T06:06:55.572Z,94.88
2017-02-11T06:08:06.246Z,94.79
2017-02-11T06:09:16.922Z,94.79
2017-02-11T06:10:27.608Z,94.6
2017-02-11T06:11:38.276Z,94.88
2017-02-11T06:12:48.936Z,94.98
2017-02-11T06:13:59.204Z,94.41
2017-02-11T06:15:09.870Z,94.98
2017-02-11T06:16:20.537Z,94.98
2017-02-11T06:17:31.207Z,94.79
2017-02-11T06:18:41.870Z,94.41
2017-02-11T06:19:52.537Z,94.6
2017-02-11T06:21:03.202Z,94.69
2017-02-11T06:22:13.478Z,94.79
2017-02-11T06:23:24.143Z,95.07
2017-02-11T06:24:34.809Z,95.17
2017-02-11T06:25:45.086Z,95.36
2017-02-11T06:26:55.749Z,95.17
2017-02-11T06:28:06.424Z,94.98
2017-02-11T06:29:17.087Z,95.07
2017-02-11T06:30:27.758Z,95.07
2017-02-11T06:31:38.429Z,94.69
2017-02-11T06:32:48.706Z,94.79
2017-02-11T06:33:59.374Z,94.88
2017-02-11T06:35:10.039Z,95.17
2017-02-11T06:36:20.308Z,95.17
2017-02-11T06:37:30.986Z,94.6
2017-02-11T06:38:41.652Z,95.17
2017-02-11T06:39:52.321Z,95.17
2017-02-11T06:41:02.986Z,94.6
2017-02-11T06:42:13.259Z,94.98
2017-02-11T06:43:23.533Z,94.79
2017-02-11T06:44:34.207Z,94.6
2017-02-11T06:45:44.873Z,94.6
2017-02-11T06:46:55.533Z,94.6
2017-02-11T06:48:06.195Z,94.88
2017-02-11T06:49:16.469Z,94.6
2017-02-11T06:50:27.138Z,94.79
2017-02-11T06:51:37.809Z,94.6
2017-02-11T06:52:48.482Z,95.36
2017-02-11T06:53:59.156Z,94.88
2017-02-11T06:55:09.820Z,95.07
2017-02-11T06:56:20.085Z,94.98
2017-02-11T06:57:30.750Z,94.69
2017-02-11T06:58:41.421Z,94.79
2017-02-11T06:59:52.103Z,95.26
2017-02-11T07:01:02.778Z,95.45
2017-02-11T07:02:13.052Z,95.54
2017-02-11T07:03:23.322Z,96.01
2017-02-11T07:04:33.999Z,96.39
2017-02-11T07:05:44.672Z,95.92
2017-02-11T07:06:55.335Z,96.58
2017-02-11T07:08:06.001Z,96.3
2017-02-11T07:09:16.669Z,96.67
2017-02-11T07:10:26.945Z,97.33
2017-02-11T07:11:37.633Z,97.24
2017-02-11T07:12:48.302Z,97.33
2017-02-11T07:13:58.961Z,97.43
2017-02-11T07:15:09.631Z,96.95
2017-02-11T07:16:19.899Z,96.95
2017-02-11T07:17:30.195Z,97.14
2017-02-11T07:18:40.869Z,97.24
2017-02-11T07:19:51.540Z,97.14
2017-02-11T07:21:02.206Z,97.33
2017-02-11T07:22:12.478Z,97.43
2017-02-11T07:23:23.139Z,97.43
2017-02-11T07:24:33.826Z,97.14
2017-02-11T07:25:44.489Z,97.43
2017-02-11T07:26:55.155Z,97.14
2017-02-11T07:28:05.874Z,97.43
2017-02-11T07:29:16.147Z,97.43
2017-02-11T07:30:26.417Z,97.33
2017-02-11T07:31:37.079Z,97.14
2017-02-11T07:32:47.745Z,97.43
2017-02-11T07:33:58.409Z,97.43
2017-02-11T07:35:09.079Z,97.14
2017-02-11T07:36:19.748Z,97.33
2017-02-11T07:37:30.414Z,97.99
2017-02-11T07:38:41.078Z,97.8
2017-02-11T07:39:51.744Z,97.05
2017-02-11T07:41:02.405Z,97.05
2017-02-11T07:42:12.674Z,97.14
2017-02-11T07:43:23.337Z,97.33
2017-02-11T07:44:34.001Z,97.43
2017-02-11T07:45:44.669Z,97.24
2017-02-11T07:46:55.334Z,97.43
2017-02-11T07:48:06.005Z,97.14
2017-02-11T07:49:16.281Z,97.24
2017-02-11T07:50:26.946Z,97.05
2017-02-11T07:51:37.613Z,97.05
2017-02-11T07:52:48.277Z,97.24
2017-02-11T07:53:58.944Z,97.33
2017-02-11T07:55:09.623Z,97.33
2017-02-11T07:56:20.293Z,96.58
2017-02-11T07:57:30.954Z,96.77
2017-02-11T07:58:41.620Z,97.05
2017-02-11T07:59:52.287Z,96.48
2017-02-11T08:01:02.951Z,96.48
2017-02-11T08:02:13.213Z,96.39
2017-02-11T08:03:23.876Z,96.48
2017-02-11T08:04:34.544Z,96.2
2017-02-11T08:05:45.218Z,96.58
2017-02-11T08:06:55.889Z,96.48
2017-02-11T08:08:06.551Z,96.39
2017-02-11T08:09:17.234Z,96.39
2017-02-11T08:10:27.902Z,96.11
2017-02-11T08:11:38.578Z,96.01
2017-02-11T08:12:49.261Z,96.48
2017-02-11T08:13:59.924Z,96.06
2017-02-11T08:15:10.593Z,96.15
2017-02-11T08:16:21.257Z,95.5
2017-02-11T08:17:31.523Z,95.4
2017-02-11T08:18:42.205Z,95.59
2017-02-11T08:19:52.875Z,95.5
2017-02-11T08:21:03.570Z,94.93
2017-02-11T08:22:14.241Z,94.74
2017-02-11T08:23:24.907Z,94.74
2017-02-11T08:24:35.588Z,95.12
2017-02-11T08:25:46.253Z,95.03
2017-02-11T08:26:56.915Z,95.31
2017-02-11T08:28:07.603Z,95.12
2017-02-11T08:29:17.872Z,95.5
2017-02-11T08:30:28.543Z,94.93
2017-02-11T08:31:39.207Z,94.84
2017-02-11T08:32:49.875Z,94.65
2017-02-11T08:34:00.544Z,94.65
2017-02-11T08:35:10.819Z,94.84
2017-02-11T08:36:21.512Z,94.27
2017-02-11T08:37:32.200Z,94.27
2017-02-11T08:38:42.872Z,94.27
2017-02-11T08:39:53.578Z,94.27
2017-02-11T08:41:04.273Z,93.51
2017-02-11T08:42:14.943Z,94.46
2017-02-11T08:43:25.213Z,93.7
2017-02-11T08:44:35.887Z,93.61
2017-02-11T08:45:46.559Z,93.7
2017-02-11T08:46:57.239Z,93.13
2017-02-11T08:48:07.934Z,92.66
2017-02-11T08:49:18.633Z,92.66
2017-02-11T08:50:29.310Z,92.76
2017-02-11T08:51:39.984Z,92.66
2017-02-11T08:52:50.656Z,91.82
2017-02-11T08:54:01.328Z,90.97
2017-02-11T08:55:12.007Z,91.25
2017-02-11T08:56:22.671Z,91.06
2017-02-11T08:57:33.332Z,91.16
2017-02-11T08:58:43.999Z,91.16
2017-02-11T08:59:54.669Z,91.06
2017-02-11T09:01:05.340Z,90.97
2017-02-11T09:02:15.614Z,90.87
2017-02-11T09:03:26.292Z,91.06
2017-02-11T09:04:36.963Z,91.25
2017-02-11T09:05:47.636Z,91.16
2017-02-11T09:06:58.309Z,90.97
2017-02-11T09:08:09.015Z,90.5
2017-02-11T09:09:19.734Z,90.4
2017-02-11T09:10:30.407Z,90.5
2017-02-11T09:11:41.084Z,90.4
2017-02-11T09:12:51.760Z,90.5
2017-02-11T09:14:02.430Z,90.4
2017-02-11T09:15:12.700Z,90.26
2017-02-11T09:16:22.975Z,90.4
2017-02-11T09:17:32.849Z,89.97
2017-02-11T09:18:43.516Z,90.45
2017-02-11T09:19:53.785Z,90.07
2017-02-11T09:21:04.460Z,89.78
2017-02-11T09:22:14.734Z,89.69
2017-02-11T09:23:25.403Z,89.88
2017-02-11T09:24:36.080Z,89.88
2017-02-11T09:25:46.753Z,89.4
2017-02-11T09:26:57.451Z,88.75
2017-02-11T09:28:08.125Z,89.31
2017-02-11T09:29:18.399Z,89.4
2017-02-11T09:30:29.065Z,89.59
2017-02-11T09:31:39.729Z,89.31
2017-02-11T09:32:50.404Z,89.27
2017-02-11T09:34:01.074Z,89.27
2017-02-11T09:35:11.742Z,88.79
2017-02-11T09:36:21.620Z,89.08
2017-02-11T09:37:32.304Z,89.69
2017-02-11T09:38:42.973Z,89.31
2017-02-11T09:39:53.643Z,89.59
2017-02-11T09:41:04.310Z,89.31
2017-02-11T09:42:14.978Z,88.84
2017-02-11T09:43:25.648Z,89.22
2017-02-11T09:44:36.312Z,89.31
2017-02-11T09:45:46.979Z,88.56
2017-02-11T09:46:57.255Z,88.84
2017-02-11T09:48:07.134Z,87.99
2017-02-11T09:49:17.805Z,88.28
2017-02-11T09:50:28.074Z,88.46
2017-02-11T09:51:38.741Z,88.56
2017-02-11T09:52:49.014Z,88.18
2017-02-11T09:53:59.692Z,88.28
2017-02-11T09:55:09.581Z,88.28
2017-02-11T09:56:20.287Z,88.28
2017-02-11T09:57:30.954Z,88.09
2017-02-11T09:58:41.625Z,88.09
2017-02-11T09:59:56.912Z,87.8
2017-02-11T10:01:07.580Z,88.09
2017-02-11T10:02:17.853Z,87.8
2017-02-11T10:03:28.126Z,87.8
2017-02-11T10:04:38.793Z,88.28
2017-02-11T10:05:49.067Z,87.9
2017-02-11T10:06:59.740Z,88.28
2017-02-11T10:08:10.409Z,87.9
2017-02-11T10:09:21.087Z,88.28
2017-02-11T10:10:31.756Z,87.71
2017-02-11T10:11:42.432Z,87.71
2017-02-11T10:12:53.108Z,87.62
2017-02-11T10:14:03.780Z,88.09
2017-02-11T10:15:14.455Z,87.24
2017-02-11T10:16:25.126Z,87.62
2017-02-11T10:17:35.409Z,86.95
2017-02-11T10:18:45.742Z,87.14
2017-02-11T10:19:56.052Z,86.86
2017-02-11T10:21:06.728Z,86.57
2017-02-11T10:22:17.412Z,86.48
2017-02-11T10:23:28.089Z,86.76
2017-02-11T10:24:38.760Z,86.15
2017-02-11T10:25:49.450Z,86.19
2017-02-11T10:27:00.129Z,85.86
2017-02-11T10:28:10.847Z,85.72
2017-02-11T10:29:21.530Z,86.05
2017-02-11T10:30:31.814Z,86.52
2017-02-11T10:31:42.483Z,86.33
2017-02-11T10:32:53.151Z,85.68
2017-02-11T10:34:03.828Z,85.39
2017-02-11T10:35:14.503Z,83.97
2017-02-11T10:36:24.775Z,83.78
2017-02-11T10:37:35.451Z,83.4
2017-02-11T10:38:45.724Z,83.78
2017-02-11T10:39:55.606Z,84.07
2017-02-11T10:41:06.280Z,84.45
2017-02-11T10:42:16.959Z,85.2
2017-02-11T10:43:27.632Z,84.73
2017-02-11T10:44:38.300Z,84.73
2017-02-11T10:45:48.979Z,84.73
2017-02-11T10:46:58.466Z,84.54
2017-02-11T10:48:09.141Z,84.45
2017-02-11T10:49:19.416Z,83.22
2017-02-11T10:50:30.094Z,83.97
2017-02-11T10:51:40.762Z,83.97
2017-02-11T10:52:51.037Z,83.78
2017-02-11T10:54:01.706Z,83.12
2017-02-11T10:55:12.374Z,83.03
2017-02-11T10:56:23.042Z,83.59
2017-02-11T10:57:33.708Z,83.78
2017-02-11T10:58:44.377Z,83.59
2017-02-11T10:59:55.060Z,83.59
2017-02-11T11:01:05.750Z,83.4
2017-02-11T11:02:16.422Z,83.69
2017-02-11T11:03:27.097Z,83.31
2017-02-11T11:04:37.760Z,83.78
2017-02-11T11:05:48.433Z,83.4
2017-02-11T11:06:59.101Z,83.03
2017-02-11T11:08:09.773Z,83.83
2017-02-11T11:09:20.042Z,83.88
2017-02-11T11:10:30.716Z,84.11
2017-02-11T11:11:41.392Z,83.36
2017-02-11T11:12:52.067Z,82.98
2017-02-11T11:14:02.743Z,82.69
2017-02-11T11:15:12.618Z,82.98
2017-02-11T11:16:22.894Z,82.88
2017-02-11T11:17:33.594Z,82.12
2017-02-11T11:18:44.265Z,81.74
2017-02-11T11:19:54.939Z,81.84
2017-02-11T11:21:05.612Z,81.18
2017-02-11T11:22:15.882Z,81.27
2017-02-11T11:23:26.550Z,81.46
2017-02-11T11:24:37.218Z,80.99
2017-02-11T11:25:47.889Z,81.09
2017-02-11T11:26:58.560Z,81.37
2017-02-11T11:28:09.229Z,80.99
2017-02-11T11:29:19.899Z,81.37
2017-02-11T11:30:30.564Z,81.56
2017-02-11T11:31:40.472Z,81.37
2017-02-11T11:32:51.148Z,81.74
2017-02-11T11:34:01.429Z,81.65
2017-02-11T11:35:12.101Z,82.79
2017-02-11T11:36:22.814Z,81.74
2017-02-11T11:37:33.089Z,81.65
2017-02-11T11:38:43.759Z,82.03
2017-02-11T11:39:54.460Z,81.93
2017-02-11T11:41:05.127Z,81.09
2017-02-11T11:42:15.004Z,81.27
2017-02-11T11:43:25.677Z,81.56
2017-02-11T11:44:36.351Z,81.18
2017-02-11T11:45:47.017Z,81.09
2017-02-11T11:46:57.694Z,80.52
2017-02-11T11:48:08.406Z,80.9
2017-02-11T11:49:18.679Z,80.24
2017-02-11T11:50:28.951Z,80.08
2017-02-11T11:51:39.224Z,79.61
2017-02-11T11:52:49.896Z,79.99
2017-02-11T11:54:00.167Z,79.8
2017-02-11T11:55:10.839Z,79.99
2017-02-11T11:56:21.119Z,79.9
2017-02-11T11:57:31.793Z,79.9
2017-02-11T11:58:42.457Z,79.9
2017-02-11T11:59:53.133Z,79.9
2017-02-11T12:01:03.815Z,80.08
2017-02-11T12:02:14.487Z,79.52
2017-02-11T12:03:24.759Z,79.61
2017-02-11T12:04:35.033Z,79.71
2017-02-11T12:05:45.707Z,80.08
2017-02-11T12:06:56.370Z,79.52
2017-02-11T12:08:07.043Z,79.61
2017-02-11T12:09:17.718Z,79.43
2017-02-11T12:10:28.389Z,78.86
2017-02-11T12:11:38.664Z,78.67
2017-02-11T12:12:49.337Z,78.58
2017-02-11T12:14:00.006Z,79.33
2017-02-11T12:15:09.878Z,78.2
2017-02-11T12:16:20.546Z,78.67
2017-02-11T12:17:31.225Z,79.33
2017-02-11T12:18:41.497Z,79.05
2017-02-11T12:19:52.171Z,78.95
2017-02-11T12:21:02.847Z,78.86
2017-02-11T12:22:13.123Z,78.76
2017-02-11T12:23:23.398Z,78.67
2017-02-11T12:24:33.678Z,78.2
2017-02-11T12:25:43.956Z,78.1
2017-02-11T12:26:54.671Z,78.48
2017-02-11T12:28:05.376Z,78.42
2017-02-11T12:29:15.256Z,78.05
2017-02-11T12:30:25.926Z,78.23
2017-02-11T12:31:36.204Z,77.48
2017-02-11T12:32:46.875Z,77.7
2017-02-11T12:33:57.542Z,76.86
2017-02-11T12:35:08.219Z,75.81
2017-02-11T12:36:18.501Z,76.1
2017-02-11T12:37:29.177Z,76
2017-02-11T12:38:39.851Z,75.91
2017-02-11T12:39:50.125Z,75.05
2017-02-11T12:41:00.800Z,75.15
2017-02-11T12:42:11.074Z,75.05
2017-02-11T12:43:21.358Z,74.21
2017-02-11T12:44:31.632Z,74.21
2017-02-11T12:45:42.304Z,73.73
2017-02-11T12:46:52.982Z,73.92
2017-02-11T12:48:03.661Z,74.3
2017-02-11T12:49:13.935Z,74.02
2017-02-11T12:50:24.604Z,73.83
2017-02-11T12:51:34.882Z,73.83
2017-02-11T12:52:45.553Z,75.05
2017-02-11T12:53:56.233Z,74.58
2017-02-11T12:55:06.115Z,74.21
2017-02-11T12:56:16.786Z,73.73
2017-02-11T12:57:27.459Z,73.26
2017-02-11T12:58:37.739Z,73.11
2017-02-11T12:59:48.411Z,72.34
2017-02-11T13:00:59.082Z,71.91
2017-02-11T13:02:09.755Z,71.19
2017-02-11T13:03:20.032Z,70.72
2017-02-11T13:04:30.314Z,69.67
2017-02-11T13:05:40.986Z,68.57
2017-02-11T13:06:51.670Z,68.38
2017-02-11T13:08:02.345Z,67.81
2017-02-11T13:09:13.023Z,66.58
2017-02-11T13:10:23.700Z,65.82
2017-02-11T13:11:33.978Z,65.75
2017-02-11T13:12:44.660Z,64.71
2017-02-11T13:13:55.329Z,64.37
2017-02-11T13:15:05.617Z,63.6
2017-02-11T13:16:15.499Z,63.6
2017-02-11T13:17:26.179Z,62.66
2017-02-11T13:18:36.858Z,62.66
2017-02-11T13:19:47.534Z,62.62
2017-02-11T13:20:57.815Z,62.24
2017-02-11T13:22:08.497Z,62.24
2017-02-11T13:23:19.180Z,62.62
2017-02-11T13:24:29.859Z,62.59
2017-02-11T13:25:40.640Z,62.59
2017-02-11T13:26:51.364Z,62.59
2017-02-11T13:28:02.044Z,62.69
2017-02-11T13:29:12.756Z,62.12
2017-02-11T13:30:23.466Z,62.59
2017-02-11T13:31:34.191Z,62.66
2017-02-11T13:32:44.871Z,62.75
2017-02-11T13:33:55.551Z,63.04
2017-02-11T13:35:06.243Z,63.7
2017-02-11T13:36:16.972Z,63.13
2017-02-11T13:37:27.650Z,62.53
2017-02-11T13:38:37.937Z,62.62
2017-02-11T13:39:48.625Z,63.57
2017-02-11T13:40:59.303Z,63.95
2017-02-11T13:42:09.590Z,64.3
2017-02-11T13:43:19.873Z,65.15
2017-02-11T13:44:30.550Z,65.25
2017-02-11T13:45:41.235Z,64.68
2017-02-11T13:46:51.908Z,64.96
2017-02-11T13:48:02.654Z,64.39
2017-02-11T13:49:13.374Z,64.49
2017-02-11T13:50:23.259Z,64.58
2017-02-11T13:51:33.940Z,64.87
2017-02-11T13:52:44.619Z,64.01
2017-02-11T13:53:55.292Z,64.58
2017-02-11T13:55:05.574Z,64.58
2017-02-11T13:56:15.459Z,64.2
2017-02-11T13:57:26.140Z,64.49
2017-02-11T13:58:36.814Z,65.34
2017-02-11T13:59:47.091Z,65.4
2017-02-11T14:00:57.833Z,64.93
2017-02-11T14:02:08.508Z,65.31
2017-02-11T14:03:18.779Z,65.69
2017-02-11T14:04:29.450Z,66.63
2017-02-11T14:05:39.723Z,66.35
2017-02-11T14:06:50.747Z,65.78
2017-02-11T14:08:01.419Z,66.25
2017-02-11T14:09:12.093Z,67.2
2017-02-11T14:10:21.972Z,67.11
2017-02-11T14:11:32.673Z,67.01
2017-02-11T14:12:43.345Z,67.2
2017-02-11T14:13:54.017Z,66.06
2017-02-11T14:15:04.693Z,65.88
2017-02-11T14:16:14.972Z,65.88
2017-02-11T14:17:25.647Z,66.5
2017-02-11T14:18:36.323Z,67.17
2017-02-11T14:19:46.996Z,68.21
2017-02-11T14:20:57.667Z,69.15
2017-02-11T14:22:08.344Z,69.53
2017-02-11T14:23:18.624Z,69.72
2017-02-11T14:24:29.299Z,70.57
2017-02-11T14:25:39.574Z,70.54
2017-02-11T14:26:50.248Z,70.82
2017-02-11T14:28:00.922Z,70.82
2017-02-11T14:29:11.595Z,70.73
2017-02-11T14:30:22.257Z,70.92
2017-02-11T14:31:32.925Z,71.3
2017-02-11T14:32:43.198Z,71.2
2017-02-11T14:33:53.870Z,71.01
2017-02-11T14:35:04.540Z,71.2
2017-02-11T14:36:14.844Z,71.11
2017-02-11T14:37:25.516Z,71.64
2017-02-11T14:38:36.188Z,71.73
2017-02-11T14:39:46.860Z,71.83
2017-02-11T14:40:57.571Z,71.45
2017-02-11T14:42:08.245Z,71.73
2017-02-11T14:43:18.918Z,72.11
2017-02-11T14:44:29.237Z,73.05
2017-02-11T14:45:39.908Z,73.71
2017-02-11T14:46:50.581Z,74.66
2017-02-11T14:48:01.248Z,74.76
2017-02-11T14:49:11.912Z,75.09
2017-02-11T14:50:22.594Z,75.19
2017-02-11T14:51:33.265Z,75.19
2017-02-11T14:52:43.926Z,75.66
2017-02-11T14:53:54.589Z,75.76
2017-02-11T14:55:05.262Z,75.57
2017-02-11T14:56:15.539Z,75.85
2017-02-11T14:57:25.812Z,75.95
2017-02-11T14:58:36.518Z,76.23
2017-02-11T14:59:47.187Z,76.14
2017-02-11T15:00:57.860Z,76.38
2017-02-11T15:02:08.133Z,76.19
2017-02-11T15:03:18.010Z,76.66
2017-02-11T15:04:28.278Z,76.76
2017-02-11T15:05:38.549Z,76.95
2017-02-11T15:06:49.215Z,77.98
2017-02-11T15:07:59.891Z,77.98
2017-02-11T15:09:10.557Z,78.83
2017-02-11T15:10:20.835Z,78.92
2017-02-11T15:11:31.107Z,79.49
2017-02-11T15:12:41.375Z,80.06
2017-02-11T15:13:52.048Z,80.63